Time;durP1;ratioP1;P1;durP2;ratioP2;P2;SDS_P1;SDS_P2;PMS_P1;PMS_P2;Temp;Humidity;BMP_temperature;BMP_pressure;BME280_temperature;BME280_humidity;BME280_pressure;Samples;Min_cycle;Max_cycle;Signal;HPM_P1;HPM_P2
2022/09/03 00:00:54;;;;;;;4.72;1.60;;;;;;;;;;5009966;28;20531;-77
2022/09/03 00:03:27;;;;;;;4.72;1.00;;;;;;;;;;4993425;28;20041;-77
2022/09/03 00:06:12;;;;;;;2.58;0.88;;;;;;;;;;5007516;28;20400;-76
2022/09/03 00:08:44;;;;;;;5.25;1.23;;;;;;;;;;4993724;28;20063;-77
2022/09/03 00:11:34;;;;;;;4.82;0.90;;;;;;;;;;4996069;28;20033;-77
2022/09/03 00:14:02;;;;;;;2.08;0.80;;;;;;;;;;4987506;28;20045;-77
2022/09/03 00:16:35;;;;;;;4.07;1.17;;;;;;;;;;4994182;28;20134;-77
2022/09/03 00:19:02;;;;;;;3.47;1.08;;;;;;;;;;5004827;28;20048;-78
2022/09/03 00:21:38;;;;;;;2.95;1.00;;;;;;;;;;4994399;28;20021;-78
2022/09/03 00:24:06;;;;;;;5.78;0.88;;;;;;;;;;5011783;28;20037;-78
2022/09/03 00:26:36;;;;;;;4.03;1.02;;;;;;;;;;4982442;28;20034;-78
2022/09/03 00:29:08;;;;;;;2.58;0.90;;;;;;;;;;4995813;28;20080;-77
2022/09/03 00:31:47;;;;;;;4.35;1.48;;;;;;;;;;4994877;28;20397;-78
2022/09/03 00:34:23;;;;;;;5.45;1.02;;;;;;;;;;5001093;28;20124;-77
2022/09/03 00:36:48;;;;;;;5.50;1.05;;;;;;;;;;5010772;28;20041;-78
2022/09/03 00:39:25;;;;;;;2.22;0.80;;;;;;;;;;4996398;28;20504;-77
2022/09/03 00:42:12;;;;;;;2.33;0.90;;;;;;;;;;5009555;28;20107;-77
2022/09/03 00:45:17;;;;;;;2.72;0.95;;;;;;;;;;5028671;28;20056;-78
2022/09/03 00:47:55;;;;;;;3.58;0.88;;;;;;;;;;4994734;28;20045;-76
2022/09/03 00:50:41;;;;;;;2.03;0.80;;;;;;;;;;5028536;28;20121;-77
2022/09/03 00:53:22;;;;;;;2.35;1.00;;;;;;;;;;5011833;28;20037;-77
2022/09/03 00:55:57;;;;;;;2.65;1.00;;;;;;;;;;5027507;28;20041;-77
2022/09/03 00:58:35;;;;;;;2.60;0.90;;;;;;;;;;5010332;28;20037;-77
2022/09/03 01:01:19;;;;;;;2.90;1.00;;;;;;;;;;4989578;28;20095;-78
2022/09/03 01:04:11;;;;;;;2.70;1.10;;;;;;;;;;4987121;28;20056;-79
2022/09/03 01:06:52;;;;;;;2.15;0.90;;;;;;;;;;5007199;28;20096;-77
2022/09/03 01:09:40;;;;;;;2.50;0.95;;;;;;;;;;4991413;28;20397;-78
2022/09/03 01:12:13;;;;;;;2.28;0.90;;;;;;;;;;5006151;28;20048;-79
2022/09/03 01:14:55;;;;;;;3.55;1.40;;;;;;;;;;4991811;28;20045;-77
2022/09/03 01:17:29;;;;;;;2.97;0.90;;;;;;;;;;5006759;28;20060;-78
2022/09/03 01:20:16;;;;;;;2.63;1.00;;;;;;;;;;5007587;28;20045;-77
2022/09/03 01:23:00;;;;;;;2.72;0.98;;;;;;;;;;4990851;28;20496;-76
2022/09/03 01:25:52;;;;;;;2.30;1.00;;;;;;;;;;5007992;28;20038;-77
2022/09/03 01:28:26;;;;;;;2.88;1.00;;;;;;;;;;5007707;28;20037;-77
2022/09/03 01:31:04;;;;;;;2.83;1.15;;;;;;;;;;5004707;28;20033;-77
2022/09/03 01:33:35;;;;;;;;;;;;;;;;;;5005530;28;20076;-77
2022/09/03 01:36:03;;;;;;;2.97;1.00;;;;;;;;;;5003144;28;19921;-77
2022/09/03 01:38:49;;;;;;;3.63;0.98;;;;;;;;;;5009462;28;20575;-76
2022/09/03 01:44:26;;;;;;;3.47;1.00;;;;;;;;;;5005679;28;20048;-77
2022/09/03 01:47:08;;;;;;;5.05;1.13;;;;;;;;;;5004863;28;20042;-77
2022/09/03 01:49:40;;;;;;;3.38;1.00;;;;;;;;;;5006859;28;20440;-76
2022/09/03 01:52:11;;;;;;;2.10;0.80;;;;;;;;;;5006537;28;20042;-77
2022/09/03 01:54:57;;;;;;;4.20;1.00;;;;;;;;;;4993191;28;20101;-76
2022/09/03 01:57:46;;;;;;;2.10;0.90;;;;;;;;;;5006106;28;20366;-77
2022/09/03 02:00:19;;;;;;;3.42;1.00;;;;;;;;;;5006464;28;20042;-77
2022/09/03 02:02:50;;;;;;;2.85;0.90;;;;;;;;;;5009198;28;20069;-77
2022/09/03 02:05:23;;;;;;;4.18;0.90;;;;;;;;;;4989369;28;20685;-78
2022/09/03 02:08:00;;;;;;;3.83;0.98;;;;;;;;;;5006787;28;20050;-77
2022/09/03 02:10:43;;;;;;;2.17;0.90;;;;;;;;;;5005276;28;20057;-76
2022/09/03 02:13:15;;;;;;;3.78;1.00;;;;;;;;;;5003120;28;20041;-75
2022/09/03 02:15:44;;;;;;;2.75;0.90;;;;;;;;;;4984934;28;20034;-76
2022/09/03 02:18:15;;;;;;;4.00;1.05;;;;;;;;;;5006212;28;20030;-76
2022/09/03 02:20:41;;;;;;;3.28;0.90;;;;;;;;;;4990931;28;20424;-76
2022/09/03 02:23:06;;;;;;;3.60;1.10;;;;;;;;;;4990354;28;20041;-77
2022/09/03 02:25:37;;;;;;;3.03;0.90;;;;;;;;;;4995366;28;20590;-77
2022/09/03 02:28:03;;;;;;;2.80;1.00;;;;;;;;;;5008282;28;20030;-77
2022/09/03 02:30:29;;;;;;;3.17;1.00;;;;;;;;;;5011364;28;20044;-76
2022/09/03 02:32:54;;;;;;;2.20;0.75;;;;;;;;;;5010929;28;20037;-76
2022/09/03 02:35:19;;;;;;;2.45;1.00;;;;;;;;;;5009951;28;20559;-76
2022/09/03 02:37:46;;;;;;;2.30;0.80;;;;;;;;;;4995293;28;20366;-76
2022/09/03 02:40:11;;;;;;;2.13;0.88;;;;;;;;;;4993943;28;20113;-76
2022/09/03 02:42:36;;;;;;;2.55;0.95;;;;;;;;;;5009661;28;20798;-76
2022/09/03 02:45:27;;;;;;;3.45;1.40;;;;;;;;;;5010480;28;20038;-78
2022/09/03 02:47:58;;;;;;;2.80;0.98;;;;;;;;;;5003396;28;20034;-77
2022/09/03 02:50:24;;;;;;;4.00;1.15;;;;;;;;;;5008682;28;20041;-77
2022/09/03 02:52:53;;;;;;;3.08;0.80;;;;;;;;;;4998465;28;20508;-76
2022/09/03 02:55:19;;;;;;;3.75;1.00;;;;;;;;;;5006800;28;20120;-77
2022/09/03 02:57:45;;;;;;;3.10;1.20;;;;;;;;;;4998740;28;20125;-77
2022/09/03 03:00:11;;;;;;;2.25;0.85;;;;;;;;;;4990243;28;20026;-77
2022/09/03 03:02:36;;;;;;;2.72;0.82;;;;;;;;;;4981852;28;20061;-77
2022/09/03 03:05:03;;;;;;;2.47;0.90;;;;;;;;;;5010310;28;20030;-76
2022/09/03 03:07:31;;;;;;;3.17;1.20;;;;;;;;;;4994035;28;20046;-77
2022/09/03 03:09:56;;;;;;;2.50;1.00;;;;;;;;;;5010640;28;20041;-76
2022/09/03 03:12:21;;;;;;;2.40;1.00;;;;;;;;;;4993055;28;20034;-76
2022/09/03 03:14:47;;;;;;;4.82;1.10;;;;;;;;;;5009678;28;20497;-76
2022/09/03 03:17:12;;;;;;;3.22;0.90;;;;;;;;;;5010782;28;20392;-77
2022/09/03 03:19:37;;;;;;;2.22;1.00;;;;;;;;;;4992760;28;20035;-76
2022/09/03 03:22:03;;;;;;;3.00;0.90;;;;;;;;;;4993983;28;20038;-77
2022/09/03 03:24:28;;;;;;;6.63;1.05;;;;;;;;;;4992732;28;20030;-78
2022/09/03 03:26:57;;;;;;;3.28;0.95;;;;;;;;;;4991178;28;20037;-77
2022/09/03 03:29:23;;;;;;;4.88;1.25;;;;;;;;;;4993272;28;20030;-77
2022/09/03 03:31:49;;;;;;;3.35;1.00;;;;;;;;;;4991593;28;20520;-78
2022/09/03 03:34:15;;;;;;;3.13;0.93;;;;;;;;;;4994119;28;20037;-77
2022/09/03 03:36:40;;;;;;;4.30;0.90;;;;;;;;;;4992180;28;20041;-76
2022/09/03 03:39:05;;;;;;;2.13;0.93;;;;;;;;;;4993244;28;20517;-77
2022/09/03 03:41:33;;;;;;;2.85;1.10;;;;;;;;;;4991902;28;20400;-77
2022/09/03 03:44:01;;;;;;;2.78;1.15;;;;;;;;;;4999129;28;20520;-77
2022/09/03 03:46:39;;;;;;;2.22;0.88;;;;;;;;;;4993075;28;20030;-77
2022/09/03 03:49:06;;;;;;;2.97;0.85;;;;;;;;;;4986346;28;20439;-76
2022/09/03 03:51:32;;;;;;;4.88;1.00;;;;;;;;;;5007667;28;20125;-78
2022/09/03 03:53:58;;;;;;;4.07;1.00;;;;;;;;;;4994782;28;20034;-76
2022/09/03 03:56:25;;;;;;;2.78;1.17;;;;;;;;;;4992239;28;20828;-77
2022/09/03 03:58:50;;;;;;;3.77;1.20;;;;;;;;;;4997306;28;20053;-78
2022/09/03 04:01:21;;;;;;;2.97;1.10;;;;;;;;;;5008770;28;20281;-78
2022/09/03 04:03:47;;;;;;;2.58;1.00;;;;;;;;;;4993405;28;20132;-77
2022/09/03 04:06:15;;;;;;;2.47;1.00;;;;;;;;;;4994206;28;20469;-77
2022/09/03 04:08:41;;;;;;;;;;;;;;;;;;4996185;28;20034;-76
2022/09/03 04:11:09;;;;;;;2.38;1.30;;;;;;;;;;4987649;28;19922;-76
2022/09/03 04:13:36;;;;;;;2.90;1.10;;;;;;;;;;5010752;28;20121;-77
2022/09/03 04:16:06;;;;;;;3.00;1.20;;;;;;;;;;4992158;28;20038;-76
2022/09/03 04:18:33;;;;;;;4.30;1.15;;;;;;;;;;4996195;28;20412;-78
2022/09/03 04:21:03;;;;;;;3.25;1.13;;;;;;;;;;5007904;28;20604;-78
2022/09/03 04:23:30;;;;;;;4.07;1.10;;;;;;;;;;5005562;28;20026;-77
2022/09/03 04:25:55;;;;;;;4.63;1.20;;;;;;;;;;4995347;28;20048;-76
2022/09/03 04:28:21;;;;;;;3.75;1.40;;;;;;;;;;5009273;28;20780;-77
2022/09/03 04:30:46;;;;;;;3.78;1.10;;;;;;;;;;5008714;28;20041;-76
2022/09/03 04:33:12;;;;;;;3.05;1.13;;;;;;;;;;4984261;28;20501;-76
2022/09/03 04:35:37;;;;;;;3.70;1.38;;;;;;;;;;4991546;28;20049;-77
2022/09/03 04:38:03;;;;;;;4.47;1.30;;;;;;;;;;4993615;28;20168;-77
2022/09/03 04:40:29;;;;;;;2.88;1.17;;;;;;;;;;5007654;28;21078;-78
2022/09/03 04:42:58;;;;;;;3.22;1.65;;;;;;;;;;5002031;28;20030;-77
2022/09/03 04:45:25;;;;;;;7.10;1.20;;;;;;;;;;5008132;28;20042;-77
2022/09/03 04:48:01;;;;;;;3.95;1.25;;;;;;;;;;4976069;28;20120;-77
2022/09/03 04:50:27;;;;;;;3.05;1.25;;;;;;;;;;5001310;28;20041;-77
2022/09/03 04:52:56;;;;;;;4.05;1.20;;;;;;;;;;4976474;28;20084;-77
2022/09/03 04:55:22;;;;;;;3.67;1.20;;;;;;;;;;4991639;28;20029;-77
2022/09/03 04:57:47;;;;;;;3.95;1.52;;;;;;;;;;4992041;28;20509;-77
2022/09/03 05:00:13;;;;;;;2.72;1.45;;;;;;;;;;4996439;28;20049;-78
2022/09/03 05:02:38;;;;;;;3.72;1.40;;;;;;;;;;4990174;28;20038;-77
2022/09/03 05:05:04;;;;;;;3.05;1.50;;;;;;;;;;4997272;28;20128;-77
2022/09/03 05:07:37;;;;;;;3.53;1.60;;;;;;;;;;5007801;28;20401;-77
2022/09/03 05:10:05;;;;;;;3.20;1.50;;;;;;;;;;5007935;28;20384;-76
2022/09/03 05:12:32;;;;;;;3.65;1.40;;;;;;;;;;4991254;28;20044;-79
2022/09/03 05:14:58;;;;;;;4.73;1.40;;;;;;;;;;5001477;28;20048;-78
2022/09/03 05:17:25;;;;;;;3.30;1.42;;;;;;;;;;4990837;28;20367;-77
2022/09/03 05:19:50;;;;;;;3.58;1.60;;;;;;;;;;4989935;28;20520;-77
2022/09/03 05:22:20;;;;;;;4.97;1.52;;;;;;;;;;4992414;28;20057;-77
2022/09/03 05:24:46;;;;;;;3.92;1.70;;;;;;;;;;5008223;28;20492;-78
2022/09/03 05:27:11;;;;;;;3.42;1.50;;;;;;;;;;4988530;28;20485;-78
2022/09/03 05:29:36;;;;;;;3.15;1.38;;;;;;;;;;4989775;28;20034;-77
2022/09/03 05:32:02;;;;;;;3.58;1.30;;;;;;;;;;5007256;28;20042;-78
2022/09/03 05:34:28;;;;;;;4.57;1.50;;;;;;;;;;5007622;28;20489;-77
2022/09/03 05:36:55;;;;;;;3.83;1.40;;;;;;;;;;5004895;28;20453;-76
2022/09/03 05:39:20;;;;;;;4.82;1.85;;;;;;;;;;5005185;28;20876;-77
2022/09/03 05:41:49;;;;;;;4.53;1.60;;;;;;;;;;4988337;28;20038;-78
2022/09/03 05:44:22;;;;;;;7.50;1.63;;;;;;;;;;5008190;28;20029;-77
2022/09/03 05:46:50;;;;;;;3.30;1.23;;;;;;;;;;5007301;28;20034;-79
2022/09/03 05:49:16;;;;;;;5.18;1.60;;;;;;;;;;5008494;28;20504;-78
2022/09/03 05:51:42;;;;;;;2.83;1.38;;;;;;;;;;5006870;28;20034;-79
2022/09/03 05:54:08;;;;;;;3.63;1.48;;;;;;;;;;5006025;28;20034;-80
2022/09/03 05:56:35;;;;;;;3.65;1.60;;;;;;;;;;4993256;28;20040;-78
2022/09/03 05:59:04;;;;;;;4.00;1.70;;;;;;;;;;4994976;28;20045;-80
2022/09/03 06:01:33;;;;;;;4.53;1.60;;;;;;;;;;4989895;28;20030;-79
2022/09/03 06:04:04;;;;;;;3.08;1.40;;;;;;;;;;4991396;28;20060;-78
2022/09/03 06:06:32;;;;;;;6.35;1.52;;;;;;;;;;4983038;28;20080;-79
2022/09/03 06:09:05;;;;;;;4.90;1.95;;;;;;;;;;4999441;28;20512;-81
2022/09/03 06:11:32;;;;;;;3.95;1.77;;;;;;;;;;5004408;28;20041;-78
2022/09/03 06:14:00;;;;;;;5.88;2.13;;;;;;;;;;4999816;28;20470;-80
2022/09/03 06:16:26;;;;;;;8.85;2.78;;;;;;;;;;4988736;28;20113;-79
2022/09/03 06:18:52;;;;;;;4.43;1.33;;;;;;;;;;4986367;28;20496;-80
2022/09/03 06:21:17;;;;;;;6.00;1.83;;;;;;;;;;4988172;28;20755;-78
2022/09/03 06:23:48;;;;;;;4.38;1.80;;;;;;;;;;5007144;28;20030;-79
2022/09/03 06:26:14;;;;;;;11.10;3.85;;;;;;;;;;4989086;28;20034;-79
2022/09/03 06:28:43;;;;;;;8.13;3.35;;;;;;;;;;4990632;28;20338;-80
2022/09/03 06:31:10;;;;;;;6.07;2.47;;;;;;;;;;4980635;28;20059;-79
2022/09/03 06:33:36;;;;;;;8.55;1.48;;;;;;;;;;5003379;28;20482;-81
2022/09/03 06:36:04;;;;;;;5.15;2.42;;;;;;;;;;4982191;28;20034;-80
2022/09/03 06:38:36;;;;;;;;;;;;;;;;;;5005108;28;20073;-78
2022/09/03 06:41:07;;;;;;;5.95;1.60;;;;;;;;;;4994903;28;19956;-79
2022/09/03 06:43:34;;;;;;;5.60;1.80;;;;;;;;;;4993375;28;20034;-78
2022/09/03 06:46:05;;;;;;;7.32;2.13;;;;;;;;;;4990537;28;20030;-78
2022/09/03 06:48:31;;;;;;;4.07;1.70;;;;;;;;;;4990457;28;20029;-78
2022/09/03 06:51:10;;;;;;;5.50;2.30;;;;;;;;;;4996993;28;20030;-78
2022/09/03 06:53:37;;;;;;;8.63;3.10;;;;;;;;;;4995725;28;20277;-81
2022/09/03 06:56:05;;;;;;;6.72;1.85;;;;;;;;;;4970793;28;20030;-79
2022/09/03 06:58:36;;;;;;;3.92;1.33;;;;;;;;;;4997354;28;20497;-79
2022/09/03 07:01:09;;;;;;;2.85;1.40;;;;;;;;;;4983435;28;20041;-85
2022/09/03 07:03:36;;;;;;;2.80;1.40;;;;;;;;;;5000444;28;20505;-84
2022/09/03 07:06:10;;;;;;;4.25;1.40;;;;;;;;;;4991124;28;20045;-84
2022/09/03 07:08:36;;;;;;;3.50;1.48;;;;;;;;;;5009124;28;20042;-84
2022/09/03 07:11:05;;;;;;;3.42;1.40;;;;;;;;;;5007839;28;20041;-85
2022/09/03 07:13:32;;;;;;;3.53;1.27;;;;;;;;;;4991046;28;20566;-85
2022/09/03 07:16:03;;;;;;;2.63;1.20;;;;;;;;;;4995693;28;20034;-84
2022/09/03 07:18:30;;;;;;;4.70;1.40;;;;;;;;;;4996367;28;20040;-83
2022/09/03 07:21:00;;;;;;;3.28;1.15;;;;;;;;;;5010647;28;20460;-84
2022/09/03 07:23:25;;;;;;;3.17;1.50;;;;;;;;;;4994793;28;20034;-83
2022/09/03 07:25:53;;;;;;;3.22;1.40;;;;;;;;;;5011600;28;20030;-83
2022/09/03 07:28:19;;;;;;;6.05;1.20;;;;;;;;;;4995744;28;20030;-82
2022/09/03 07:30:44;;;;;;;5.38;1.50;;;;;;;;;;5012546;28;20041;-84
2022/09/03 07:33:10;;;;;;;4.53;1.42;;;;;;;;;;4998070;28;20033;-84
2022/09/03 07:35:36;;;;;;;2.78;1.20;;;;;;;;;;4994851;28;20044;-83
2022/09/03 07:38:04;;;;;;;4.47;1.40;;;;;;;;;;4995939;28;20042;-85
2022/09/03 07:40:31;;;;;;;3.38;1.27;;;;;;;;;;4994007;28;20033;-83
2022/09/03 07:43:00;;;;;;;3.67;1.25;;;;;;;;;;5011955;28;20163;-84
2022/09/03 07:45:27;;;;;;;3.75;1.40;;;;;;;;;;4995101;28;20111;-84
2022/09/03 07:47:53;;;;;;;3.58;1.20;;;;;;;;;;4997176;28;20035;-85
2022/09/03 07:50:18;;;;;;;3.28;1.40;;;;;;;;;;4994228;28;20041;-84
2022/09/03 07:52:44;;;;;;;14.52;7.03;;;;;;;;;;5012929;28;20041;-84
2022/09/03 07:55:10;;;;;;;4.35;1.80;;;;;;;;;;4994561;28;20034;-84
2022/09/03 07:57:35;;;;;;;2.88;1.23;;;;;;;;;;4994656;28;20439;-80
2022/09/03 08:00:02;;;;;;;3.13;1.02;;;;;;;;;;5002572;28;20114;-80
2022/09/03 08:02:27;;;;;;;2.88;1.30;;;;;;;;;;4993700;28;20026;-80
2022/09/03 08:04:53;;;;;;;5.00;1.17;;;;;;;;;;5011314;28;20033;-80
2022/09/03 08:07:18;;;;;;;2.85;1.02;;;;;;;;;;4994824;28;20408;-82
2022/09/03 08:09:48;;;;;;;3.17;1.30;;;;;;;;;;5004257;28;20037;-81
2022/09/03 08:12:14;;;;;;;3.28;1.50;;;;;;;;;;4992738;28;20041;-79
2022/09/03 08:14:39;;;;;;;3.97;1.38;;;;;;;;;;4994107;28;20037;-80
2022/09/03 08:17:06;;;;;;;4.13;1.20;;;;;;;;;;4992140;28;20112;-80
2022/09/03 08:19:31;;;;;;;3.73;1.07;;;;;;;;;;4993164;28;20037;-81
2022/09/03 08:21:56;;;;;;;3.22;1.70;;;;;;;;;;4992434;28;20949;-80
2022/09/03 08:24:24;;;;;;;4.50;1.15;;;;;;;;;;4995594;28;20121;-81
2022/09/03 08:26:49;;;;;;;;;;;;;;;;;;5009471;28;20458;-81
2022/09/03 08:29:15;;;;;;;2.55;1.20;;;;;;;;;;4996500;28;19924;-83
2022/09/03 08:31:41;;;;;;;5.20;1.52;;;;;;;;;;4989889;28;20073;-81
2022/09/03 08:34:07;;;;;;;3.08;1.25;;;;;;;;;;4993073;28;20089;-81
2022/09/03 08:36:35;;;;;;;4.47;1.17;;;;;;;;;;4994313;28;20033;-82
2022/09/03 08:39:08;;;;;;;4.65;1.77;;;;;;;;;;5000685;28;20044;-81
2022/09/03 08:41:45;;;;;;;2.67;0.98;;;;;;;;;;4988658;28;20417;-82
2022/09/03 08:44:13;;;;;;;3.50;1.00;;;;;;;;;;5003630;28;20035;-81
2022/09/03 08:47:22;;;;;;;5.18;0.98;;;;;;;;;;5010774;28;20043;-81
2022/09/03 08:49:57;;;;;;;2.72;0.90;;;;;;;;;;4964599;28;20030;-81
2022/09/03 08:52:33;;;;;;;3.63;1.10;;;;;;;;;;4998676;28;20029;-82
2022/09/03 08:55:35;;;;;;;3.33;0.98;;;;;;;;;;4993700;28;20060;-80
2022/09/03 08:58:13;;;;;;;2.38;0.80;;;;;;;;;;4962120;28;20392;-81
2022/09/03 09:01:00;;;;;;;2.63;0.90;;;;;;;;;;4994142;28;20121;-80
2022/09/03 09:03:25;;;;;;;2.97;0.90;;;;;;;;;;5009718;28;20099;-80
2022/09/03 09:06:15;;;;;;;2.50;0.90;;;;;;;;;;5010140;28;20033;-82
2022/09/03 09:09:02;;;;;;;2.53;0.93;;;;;;;;;;4997967;28;20479;-82
2022/09/03 09:11:54;;;;;;;2.40;0.80;;;;;;;;;;4997540;28;20033;-82
2022/09/03 09:14:44;;;;;;;2.78;0.90;;;;;;;;;;5023795;28;20103;-81
2022/09/03 09:17:36;;;;;;;2.22;0.85;;;;;;;;;;4999794;28;20033;-82
2022/09/03 09:20:04;;;;;;;3.25;1.02;;;;;;;;;;5025837;28;20503;-82
2022/09/03 09:22:35;;;;;;;2.30;0.55;;;;;;;;;;4996163;28;20115;-80
2022/09/03 09:25:04;;;;;;;2.97;0.90;;;;;;;;;;5002022;28;20087;-80
2022/09/03 09:27:31;;;;;;;2.60;0.77;;;;;;;;;;5007249;28;20029;-82
2022/09/03 09:29:57;;;;;;;;;;;;;;;;;;5009054;28;20061;-81
2022/09/03 09:32:22;;;;;;;3.43;0.73;;;;;;;;;;4995681;28;19964;-82
2022/09/03 09:34:48;;;;;;;2.08;0.73;;;;;;;;;;5007507;28;20038;-82
2022/09/03 09:37:14;;;;;;;2.03;0.60;;;;;;;;;;4993346;28;20113;-80
2022/09/03 09:39:57;;;;;;;2.28;0.77;;;;;;;;;;4991474;28;20037;-80
2022/09/03 09:42:23;;;;;;;2.92;0.63;;;;;;;;;;4982393;28;20041;-81
2022/09/03 09:44:48;;;;;;;2.22;0.60;;;;;;;;;;4992369;28;20041;-82
2022/09/03 09:47:24;;;;;;;2.80;0.63;;;;;;;;;;4994472;28;20037;-80
2022/09/03 09:49:52;;;;;;;2.00;0.80;;;;;;;;;;4984133;28;20116;-81
2022/09/03 09:52:24;;;;;;;2.40;0.73;;;;;;;;;;5006877;28;20056;-83
2022/09/03 09:54:51;;;;;;;6.18;0.90;;;;;;;;;;4990725;28;20113;-78
2022/09/03 09:57:21;;;;;;;2.90;0.70;;;;;;;;;;4991083;28;20045;-77
2022/09/03 09:59:48;;;;;;;1.70;0.70;;;;;;;;;;4992197;28;20463;-78
2022/09/03 10:02:25;;;;;;;2.03;0.60;;;;;;;;;;5005721;28;20025;-78
2022/09/03 10:04:50;;;;;;;2.75;0.70;;;;;;;;;;5006090;28;20041;-77
2022/09/03 10:07:25;;;;;;;2.72;0.77;;;;;;;;;;5004427;28;20046;-77
2022/09/03 10:09:58;;;;;;;2.08;0.80;;;;;;;;;;5005869;28;20504;-77
2022/09/03 10:12:34;;;;;;;2.08;0.70;;;;;;;;;;5019812;28;20030;-78
2022/09/03 10:15:09;;;;;;;1.88;0.75;;;;;;;;;;4986791;28;20030;-78
2022/09/03 10:18:13;;;;;;;3.55;0.80;;;;;;;;;;5004372;28;20422;-78
2022/09/03 10:21:11;;;;;;;3.85;0.73;;;;;;;;;;4990815;28;20038;-78
2022/09/03 10:23:55;;;;;;;2.92;0.65;;;;;;;;;;4987465;28;20054;-78
2022/09/03 10:26:31;;;;;;;2.72;0.80;;;;;;;;;;5005575;28;20034;-77
2022/09/03 10:28:59;;;;;;;1.70;0.70;;;;;;;;;;5004154;28;20486;-77
2022/09/03 10:31:43;;;;;;;5.43;0.70;;;;;;;;;;5003268;28;20038;-78
2022/09/03 10:34:17;;;;;;;1.92;0.65;;;;;;;;;;5004446;28;20030;-77
2022/09/03 10:37:03;;;;;;;2.15;0.70;;;;;;;;;;5005515;28;20109;-77
2022/09/03 10:39:55;;;;;;;1.80;0.70;;;;;;;;;;5004020;28;20096;-79
2022/09/03 10:42:29;;;;;;;4.10;1.10;;;;;;;;;;5000784;28;20493;-76
2022/09/03 10:45:00;;;;;;;4.80;1.10;;;;;;;;;;4993754;28;20193;-75
2022/09/03 10:47:28;;;;;;;2.67;0.73;;;;;;;;;;5003342;28;20034;-77
2022/09/03 10:49:57;;;;;;;4.70;1.00;;;;;;;;;;5008234;28;20042;-79
2022/09/03 10:52:54;;;;;;;3.95;0.90;;;;;;;;;;5007416;28;20500;-78
2022/09/03 10:55:22;;;;;;;;;;;;;;;;;;5007905;28;20124;-78
2022/09/03 10:58:07;;;;;;;3.53;1.05;;;;;;;;;;4987021;28;20320;-78
2022/09/03 11:00:35;;;;;;;3.35;0.65;;;;;;;;;;4998265;28;20038;-78
2022/09/03 11:03:06;;;;;;;4.32;0.70;;;;;;;;;;5008782;28;20044;-78
2022/09/03 11:05:38;;;;;;;3.35;0.80;;;;;;;;;;4986378;28;20573;-77
2022/09/03 11:08:34;;;;;;;2.47;0.90;;;;;;;;;;5003658;28;20081;-77
2022/09/03 11:11:11;;;;;;;2.57;0.80;;;;;;;;;;4995571;28;20038;-77
2022/09/03 11:13:44;;;;;;;3.00;0.77;;;;;;;;;;4991624;28;20057;-76
2022/09/03 11:16:11;;;;;;;1.42;0.60;;;;;;;;;;5006292;28;20038;-77
2022/09/03 11:18:40;;;;;;;2.67;0.93;;;;;;;;;;5008187;28;20049;-77
2022/09/03 11:21:10;;;;;;;2.08;0.70;;;;;;;;;;4990369;28;20037;-78
2022/09/03 11:23:41;;;;;;;1.75;0.63;;;;;;;;;;4998680;28;20041;-79
2022/09/03 11:26:11;;;;;;;2.45;0.80;;;;;;;;;;5006324;28;20520;-78
2022/09/03 11:28:58;;;;;;;1.52;0.57;;;;;;;;;;5007879;28;20443;-78
2022/09/03 11:31:31;;;;;;;3.00;0.77;;;;;;;;;;5007855;28;20038;-79
2022/09/03 11:34:14;;;;;;;3.17;0.70;;;;;;;;;;5009476;28;20180;-78
2022/09/03 11:36:40;;;;;;;3.47;0.60;;;;;;;;;;4990165;28;20551;-77
2022/09/03 11:39:31;;;;;;;2.17;0.73;;;;;;;;;;4994837;28;20072;-82
2022/09/03 11:42:05;;;;;;;1.75;0.73;;;;;;;;;;5003053;28;20038;-78
2022/09/03 11:44:38;;;;;;;2.42;0.70;;;;;;;;;;4991305;28;20042;-79
2022/09/03 11:47:21;;;;;;;1.27;0.60;;;;;;;;;;4997587;28;20457;-78
2022/09/03 11:49:51;;;;;;;2.47;0.82;;;;;;;;;;5013650;28;20037;-79
2022/09/03 11:52:28;;;;;;;3.45;1.15;;;;;;;;;;5006506;28;20497;-79
2022/09/03 11:54:54;;;;;;;2.70;0.70;;;;;;;;;;5005682;28;20449;-78
2022/09/03 11:57:27;;;;;;;2.25;0.70;;;;;;;;;;5005286;28;20045;-78
2022/09/03 11:59:53;;;;;;;1.48;0.60;;;;;;;;;;5006415;28;20054;-78
2022/09/03 12:02:22;;;;;;;2.25;0.60;;;;;;;;;;5005899;28;20041;-78
2022/09/03 12:05:35;;;;;;;3.25;0.63;;;;;;;;;;4990165;28;20033;-78
2022/09/03 12:08:15;;;;;;;2.00;0.80;;;;;;;;;;4955222;28;20069;-78
2022/09/03 12:10:51;;;;;;;3.03;0.77;;;;;;;;;;5006042;28;20599;-78
2022/09/03 12:13:45;;;;;;;2.55;0.95;;;;;;;;;;5006564;28;20404;-79
2022/09/03 12:16:54;;;;;;;2.05;0.85;;;;;;;;;;4989143;28;20033;-78
2022/09/03 12:19:40;;;;;;;2.35;0.70;;;;;;;;;;4946302;28;20046;-78
2022/09/03 12:22:05;;;;;;;2.78;0.70;;;;;;;;;;5004990;28;20042;-78
2022/09/03 12:24:34;;;;;;;2.42;0.73;;;;;;;;;;5006614;28;20041;-78
2022/09/03 12:27:00;;;;;;;5.05;0.80;;;;;;;;;;4989921;28;20133;-79
2022/09/03 12:29:28;;;;;;;4.22;0.85;;;;;;;;;;5006698;28;20040;-79
2022/09/03 12:31:55;;;;;;;;;;;;;;;;;;4990631;28;20034;-80
2022/09/03 12:34:22;;;;;;;4.40;0.80;;;;;;;;;;5003847;28;19944;-79
2022/09/03 12:36:52;;;;;;;2.85;0.60;;;;;;;;;;5006618;28;20522;-79
2022/09/03 12:39:25;;;;;;;1.58;0.60;;;;;;;;;;4979526;28;20057;-78
2022/09/03 12:42:02;;;;;;;2.47;0.80;;;;;;;;;;5007015;28;20065;-80
2022/09/03 12:44:47;;;;;;;1.80;0.65;;;;;;;;;;4990207;28;20508;-81
2022/09/03 12:47:19;;;;;;;2.25;0.80;;;;;;;;;;4987914;28;20168;-81
2022/09/03 12:49:52;;;;;;;2.28;0.60;;;;;;;;;;4998008;28;20509;-81
2022/09/03 12:52:20;;;;;;;4.53;0.88;;;;;;;;;;5004942;28;20547;-79
2022/09/03 12:54:57;;;;;;;3.38;0.70;;;;;;;;;;5006447;28;20113;-82
2022/09/03 12:57:36;;;;;;;3.10;0.70;;;;;;;;;;5004479;28;20029;-80
2022/09/03 13:00:09;;;;;;;4.05;0.90;;;;;;;;;;4998194;28;20570;-81
2022/09/03 13:02:53;;;;;;;2.95;1.00;;;;;;;;;;4979453;28;20030;-80
2022/09/03 13:05:32;;;;;;;3.28;0.90;;;;;;;;;;4980097;28;20038;-82
2022/09/03 13:07:59;;;;;;;2.80;0.80;;;;;;;;;;4988051;28;20424;-81
2022/09/03 13:10:30;;;;;;;2.97;0.80;;;;;;;;;;4987612;28;20152;-80
2022/09/03 13:13:00;;;;;;;2.78;0.80;;;;;;;;;;4987859;28;20256;-81
2022/09/03 13:15:27;;;;;;;3.22;0.98;;;;;;;;;;4993982;28;20030;-81
2022/09/03 13:18:00;;;;;;;3.78;0.85;;;;;;;;;;4996752;28;20042;-81
2022/09/03 13:20:34;;;;;;;3.70;0.85;;;;;;;;;;5004265;28;20049;-81
2022/09/03 13:23:28;;;;;;;1.63;0.60;;;;;;;;;;5007909;28;20038;-81
2022/09/03 13:26:21;;;;;;;1.98;0.80;;;;;;;;;;5004412;28;20022;-82
2022/09/03 13:29:23;;;;;;;3.10;1.00;;;;;;;;;;4986807;28;20505;-82
2022/09/03 13:31:59;;;;;;;4.47;1.02;;;;;;;;;;5002647;28;20061;-82
2022/09/03 13:34:36;;;;;;;1.45;0.70;;;;;;;;;;4988631;28;20034;-81
2022/09/03 13:37:05;;;;;;;;;;;;;;;;;;4988271;28;20033;-81
2022/09/03 13:39:46;;;;;;;2.25;0.90;;;;;;;;;;4992982;28;19937;-81
2022/09/03 13:42:26;;;;;;;1.92;0.82;;;;;;;;;;5003770;28;20034;-82
2022/09/03 13:44:55;;;;;;;2.78;1.05;;;;;;;;;;4989709;28;20065;-82
2022/09/03 13:47:33;;;;;;;2.92;0.70;;;;;;;;;;5003696;28;20145;-81
2022/09/03 13:50:23;;;;;;;6.43;1.00;;;;;;;;;;5004745;28;20393;-81
2022/09/03 13:53:09;;;;;;;2.47;0.80;;;;;;;;;;4990607;28;20030;-82
2022/09/03 13:55:49;;;;;;;3.60;0.90;;;;;;;;;;5003659;28;20045;-81
2022/09/03 13:58:28;;;;;;;2.60;0.90;;;;;;;;;;4995250;28;20033;-81
2022/09/03 14:00:56;;;;;;;5.13;1.30;;;;;;;;;;4987539;28;20037;-81
2022/09/03 14:03:35;;;;;;;2.10;0.77;;;;;;;;;;5004389;28;20037;-80
2022/09/03 14:06:22;;;;;;;3.38;1.00;;;;;;;;;;4990125;28;20080;-81
2022/09/03 14:09:19;;;;;;;3.03;0.70;;;;;;;;;;4998280;28;20037;-81
2022/09/03 14:12:02;;;;;;;1.90;0.77;;;;;;;;;;4975182;28;20045;-81
2022/09/03 14:15:02;;;;;;;3.75;0.80;;;;;;;;;;5025255;28;20037;-80
2022/09/03 14:17:56;;;;;;;2.83;0.70;;;;;;;;;;5024845;28;20061;-80
2022/09/03 14:20:48;;;;;;;2.35;0.98;;;;;;;;;;5006033;28;20044;-80
2022/09/03 14:23:30;;;;;;;2.47;0.82;;;;;;;;;;4990611;28;20509;-82
2022/09/03 14:25:57;;;;;;;3.60;1.05;;;;;;;;;;5006347;28;20049;-81
2022/09/03 14:28:39;;;;;;;2.38;1.10;;;;;;;;;;5006751;28;20040;-81
2022/09/03 14:31:23;;;;;;;3.17;0.98;;;;;;;;;;4984974;28;20037;-81
2022/09/03 14:34:14;;;;;;;2.33;0.80;;;;;;;;;;5007378;28;20049;-80
2022/09/03 14:36:46;;;;;;;2.50;1.00;;;;;;;;;;5022406;28;20070;-83
2022/09/03 14:39:31;;;;;;;3.22;0.85;;;;;;;;;;4999053;28;20048;-81
2022/09/03 14:42:06;;;;;;;2.10;0.80;;;;;;;;;;4989683;28;20061;-81
2022/09/03 14:44:53;;;;;;;2.78;0.90;;;;;;;;;;4998407;28;20038;-80
2022/09/03 14:47:21;;;;;;;;;;;;;;;;;;5006807;28;20519;-82
2022/09/03 14:50:10;;;;;;;3.63;1.33;;;;;;;;;;5025968;28;19917;-82
2022/09/03 14:52:38;;;;;;;3.97;1.00;;;;;;;;;;5006125;28;20041;-81
2022/09/03 14:55:16;;;;;;;4.20;1.13;;;;;;;;;;5006719;28;20194;-81
2022/09/03 14:57:51;;;;;;;2.80;1.00;;;;;;;;;;4997567;28;20389;-82
2022/09/03 15:00:20;;;;;;;4.47;1.05;;;;;;;;;;5006943;28;20045;-82
2022/09/03 15:03:04;;;;;;;4.25;1.00;;;;;;;;;;4983724;28;20036;-81
2022/09/03 15:05:48;;;;;;;2.35;1.05;;;;;;;;;;4989876;28;20362;-81
2022/09/03 15:08:35;;;;;;;2.95;1.17;;;;;;;;;;5023789;28;20041;-82
2022/09/03 15:11:03;;;;;;;3.67;1.10;;;;;;;;;;5005512;28;20045;-81
2022/09/03 15:13:29;;;;;;;2.97;1.00;;;;;;;;;;4989718;28;20427;-81
2022/09/03 15:16:00;;;;;;;2.70;0.80;;;;;;;;;;4990813;28;20516;-82
2022/09/03 15:18:32;;;;;;;3.05;1.20;;;;;;;;;;5007519;28;20041;-82
2022/09/03 15:21:14;;;;;;;3.92;1.15;;;;;;;;;;5006429;28;20042;-81
2022/09/03 15:23:54;;;;;;;4.05;1.00;;;;;;;;;;4985032;28;20168;-82